createdAt,value
2019-03-16T00:01:40.355Z,0
2019-03-16T00:02:55.100Z,0
2019-03-16T00:03:40.357Z,0
2019-03-16T00:04:40.360Z,0
2019-03-16T00:07:40.333Z,0
2019-03-16T00:08:40.425Z,0
2019-03-16T00:09:40.441Z,0
2019-03-16T00:10:40.261Z,0
2019-03-16T00:11:40.766Z,0
2019-03-16T00:12:40.492Z,0
2019-03-16T00:13:40.259Z,0
2019-03-16T00:14:55.178Z,0
2019-03-16T00:15:55.194Z,0
2019-03-16T00:16:40.550Z,0
2019-03-16T00:17:40.564Z,0
2019-03-16T00:18:40.575Z,0
2019-03-16T00:20:40.676Z,0
2019-03-16T00:21:55.284Z,0
2019-03-16T00:22:40.648Z,0
2019-03-16T00:23:40.658Z,0
2019-03-16T00:24:40.668Z,0
2019-03-16T00:25:40.683Z,0
2019-03-16T00:26:40.708Z,0
2019-03-16T00:27:40.713Z,0
2019-03-16T00:28:40.738Z,0
2019-03-16T00:29:40.789Z,0
2019-03-16T00:30:40.765Z,0
2019-03-16T00:31:40.781Z,0
2019-03-16T00:32:40.806Z,0
2019-03-16T00:33:55.471Z,0
2019-03-16T00:34:40.829Z,0
2019-03-16T00:35:55.503Z,0
2019-03-16T00:36:40.860Z,0
2019-03-16T00:37:55.533Z,0
2019-03-16T00:38:40.887Z,0
2019-03-16T00:39:40.901Z,0
2019-03-16T00:40:40.922Z,0
2019-03-16T00:41:40.930Z,0
2019-03-16T00:42:40.946Z,0
2019-03-16T00:43:40.960Z,0
2019-03-16T00:44:40.977Z,0
2019-03-16T00:45:41.093Z,0
2019-03-16T00:46:41.013Z,0
2019-03-16T00:47:41.021Z,0
2019-03-16T00:48:41.038Z,0
2019-03-16T00:49:41.057Z,0
2019-03-16T00:50:55.731Z,0
2019-03-16T00:51:41.090Z,0
2019-03-16T00:52:41.113Z,0
2019-03-16T00:53:55.777Z,0
2019-03-16T00:54:41.132Z,0
2019-03-16T00:55:41.142Z,0
2019-03-16T00:56:41.162Z,0
2019-03-16T00:57:41.175Z,0
2019-03-16T00:58:41.195Z,0
2019-03-16T00:59:55.873Z,0
2019-03-16T01:00:41.231Z,0
2019-03-16T01:01:41.237Z,0
2019-03-16T01:02:41.264Z,0
2019-03-16T01:03:41.270Z,0
2019-03-16T01:04:41.284Z,0
2019-03-16T01:05:41.300Z,0
2019-03-16T01:07:41.331Z,0
2019-03-16T01:08:41.347Z,0
2019-03-16T01:09:56.023Z,0
2019-03-16T01:10:41.387Z,0
2019-03-16T01:11:41.395Z,0
2019-03-16T01:12:41.407Z,0
2019-03-16T01:13:41.441Z,0
2019-03-16T01:14:41.459Z,0
2019-03-16T01:15:41.452Z,0
2019-03-16T01:16:41.472Z,0
2019-03-16T01:17:41.494Z,0
2019-03-16T01:18:41.500Z,0
2019-03-16T01:19:41.527Z,0
2019-03-16T01:20:56.190Z,0
2019-03-16T01:21:41.552Z,0
2019-03-16T01:22:56.222Z,0
2019-03-16T01:23:41.590Z,0
2019-03-16T01:24:56.254Z,0
2019-03-16T01:25:41.605Z,0
2019-03-16T01:26:41.623Z,0
2019-03-16T01:27:41.658Z,0
2019-03-16T01:28:41.735Z,0
2019-03-16T01:29:41.668Z,0
2019-03-16T01:30:41.692Z,0
2019-03-16T01:31:56.364Z,0
2019-03-16T01:32:48.072Z,0
2019-03-16T01:33:41.732Z,0
2019-03-16T01:34:44.127Z,0
2019-03-16T01:35:41.759Z,0
2019-03-16T01:36:56.438Z,0
2019-03-16T01:37:56.453Z,0
2019-03-16T01:38:41.805Z,0
2019-03-16T01:39:41.919Z,0
2019-03-16T01:40:41.848Z,0
2019-03-16T01:41:41.862Z,0
2019-03-16T01:42:41.869Z,0
2019-03-16T01:43:41.890Z,0
2019-03-16T01:44:41.898Z,0
2019-03-16T01:45:41.911Z,0
2019-03-16T01:46:41.935Z,0
2019-03-16T01:47:41.963Z,0
2019-03-16T01:48:41.963Z,0
2019-03-16T01:49:41.981Z,0
2019-03-16T01:50:41.988Z,0
2019-03-16T01:52:42.023Z,0
2019-03-16T01:53:42.034Z,0
2019-03-16T01:54:42.051Z,0
2019-03-16T01:55:42.131Z,0
2019-03-16T01:56:56.739Z,0
2019-03-16T01:57:42.098Z,0
2019-03-16T01:58:42.111Z,0
2019-03-16T01:59:42.138Z,0
2019-03-16T02:00:42.173Z,0
2019-03-16T02:01:42.154Z,0
2019-03-16T02:02:56.804Z,0
2019-03-16T02:03:56.852Z,0
2019-03-16T02:04:42.206Z,0
2019-03-16T02:05:42.229Z,0
2019-03-16T02:06:42.238Z,0
2019-03-16T02:07:42.264Z,0
2019-03-16T02:08:42.269Z,0
2019-03-16T02:09:42.278Z,0
2019-03-16T02:10:42.298Z,0
2019-03-16T02:11:42.309Z,0
2019-03-16T02:12:56.993Z,0
2019-03-16T02:13:42.344Z,0
2019-03-16T02:14:42.457Z,0
2019-03-16T02:15:42.375Z,0
2019-03-16T02:16:42.388Z,0
2019-03-16T02:17:42.402Z,0
2019-03-16T02:18:42.429Z,0
2019-03-16T02:20:42.448Z,0
2019-03-16T02:21:57.297Z,0
2019-03-16T02:22:57.137Z,0
2019-03-16T02:23:42.488Z,0
2019-03-16T02:24:42.513Z,0
2019-03-16T02:25:42.530Z,0
2019-03-16T02:26:42.542Z,0
2019-03-16T02:27:42.554Z,0
2019-03-16T02:28:57.339Z,0
2019-03-16T02:29:42.769Z,0
2019-03-16T02:30:42.468Z,0
2019-03-16T02:31:42.630Z,0
2019-03-16T02:32:42.649Z,0
2019-03-16T02:33:42.681Z,0
2019-03-16T02:34:42.667Z,0
2019-03-16T02:36:42.851Z,0
2019-03-16T02:37:42.723Z,0
2019-03-16T02:38:42.732Z,0
2019-03-16T02:39:42.741Z,0
2019-03-16T02:40:57.417Z,0
2019-03-16T02:41:42.773Z,0
2019-03-16T02:42:42.834Z,0
2019-03-16T02:43:42.844Z,0
2019-03-16T02:44:57.487Z,0
2019-03-16T02:45:42.846Z,0
2019-03-16T02:46:42.844Z,0
2019-03-16T02:47:43.051Z,0
2019-03-16T02:48:42.885Z,0
2019-03-16T02:49:42.889Z,0
2019-03-16T02:50:42.906Z,0
2019-03-16T02:51:42.920Z,0
2019-03-16T02:52:42.931Z,0
2019-03-16T02:53:42.960Z,0
2019-03-16T02:54:42.986Z,0
2019-03-16T02:55:42.985Z,0
2019-03-16T02:56:43.053Z,0
2019-03-16T02:57:43.024Z,0
2019-03-16T02:58:43.030Z,0
2019-03-16T02:59:57.706Z,0
2019-03-16T03:00:43.089Z,0
2019-03-16T03:01:43.077Z,0
2019-03-16T03:02:43.096Z,0
2019-03-16T03:05:43.161Z,0
2019-03-16T03:06:43.153Z,0
2019-03-16T03:07:43.211Z,0
2019-03-16T03:08:43.206Z,0
2019-03-16T03:09:43.201Z,0
2019-03-16T03:10:42.994Z,0
2019-03-16T03:11:43.231Z,0
2019-03-16T03:12:57.914Z,0
2019-03-16T03:13:43.258Z,0
2019-03-16T03:14:43.276Z,0
2019-03-16T03:15:43.295Z,0
2019-03-16T03:16:43.311Z,0
2019-03-16T03:17:43.323Z,0
2019-03-16T03:18:43.351Z,0
2019-03-16T03:19:43.356Z,0
2019-03-16T03:20:43.363Z,0
2019-03-16T03:21:43.378Z,0
2019-03-16T03:22:43.542Z,0
2019-03-16T03:23:58.072Z,0
2019-03-16T03:24:58.100Z,0
2019-03-16T03:25:43.459Z,0
2019-03-16T03:26:58.115Z,0
2019-03-16T03:27:43.585Z,0
2019-03-16T03:28:58.145Z,0
2019-03-16T03:29:43.519Z,0
2019-03-16T03:30:43.630Z,0
2019-03-16T03:31:58.239Z,0
2019-03-16T03:32:43.724Z,0
2019-03-16T03:34:07.638Z,0
2019-03-16T03:34:43.581Z,0
2019-03-16T03:35:43.606Z,0
2019-03-16T03:36:43.610Z,0
2019-03-16T03:37:43.613Z,0
2019-03-16T03:38:43.661Z,0
2019-03-16T03:39:43.710Z,0
2019-03-16T03:40:43.670Z,0
2019-03-16T03:41:43.681Z,0
2019-03-16T03:42:43.712Z,0
2019-03-16T03:43:43.731Z,0
2019-03-16T03:44:43.891Z,0
2019-03-16T03:45:43.743Z,0
2019-03-16T03:46:43.757Z,0
2019-03-16T03:47:58.441Z,0
2019-03-16T03:48:43.791Z,0
2019-03-16T03:49:58.464Z,0
2019-03-16T03:50:43.852Z,0
2019-03-16T03:51:43.835Z,0
2019-03-16T03:52:43.867Z,0
2019-03-16T03:53:48.202Z,0
2019-03-16T03:55:43.897Z,0
2019-03-16T03:56:58.589Z,0
2019-03-16T03:57:43.967Z,0
2019-03-16T03:58:43.716Z,0
2019-03-16T03:59:43.962Z,0
2019-03-16T04:00:58.624Z,0
2019-03-16T04:01:43.739Z,0
2019-03-16T04:02:44.017Z,0
2019-03-16T04:04:16.445Z,0
2019-03-16T04:04:44.035Z,0
2019-03-16T04:05:44.047Z,0
2019-03-16T04:06:44.061Z,0
2019-03-16T04:07:44.116Z,0
2019-03-16T04:08:44.105Z,0
2019-03-16T04:09:44.098Z,0
2019-03-16T04:10:44.130Z,0
2019-03-16T04:11:44.141Z,0
2019-03-16T04:12:44.148Z,0
2019-03-16T04:13:44.174Z,0
2019-03-16T04:14:44.172Z,0
2019-03-16T04:15:44.207Z,0
2019-03-16T04:16:58.869Z,0
2019-03-16T04:17:44.515Z,0
2019-03-16T04:18:44.232Z,0
2019-03-16T04:19:58.915Z,0
2019-03-16T04:20:44.262Z,0
2019-03-16T04:21:44.295Z,0
2019-03-16T04:22:44.379Z,0
2019-03-16T04:23:44.316Z,0
2019-03-16T04:24:47.822Z,0
2019-03-16T04:25:59.011Z,0
2019-03-16T04:26:44.363Z,0
2019-03-16T04:28:44.385Z,0
2019-03-16T04:29:44.427Z,0
2019-03-16T04:30:44.423Z,0
2019-03-16T04:31:44.435Z,0
2019-03-16T04:32:59.106Z,0
2019-03-16T04:33:44.462Z,0
2019-03-16T04:34:59.171Z,0
2019-03-16T04:35:44.495Z,0
2019-03-16T04:36:44.506Z,0
2019-03-16T04:37:44.617Z,0
2019-03-16T04:38:44.551Z,0
2019-03-16T04:39:44.551Z,0
2019-03-16T04:40:47.199Z,0
2019-03-16T04:41:44.652Z,0
2019-03-16T04:42:59.257Z,0
2019-03-16T04:43:44.608Z,0
2019-03-16T04:44:44.622Z,0
2019-03-16T04:45:44.640Z,0
2019-03-16T04:46:44.663Z,0
2019-03-16T04:48:44.446Z,0
2019-03-16T04:49:44.704Z,4
2019-03-16T04:50:44.720Z,0
2019-03-16T04:51:44.728Z,4
2019-03-16T04:52:44.745Z,4
2019-03-16T04:53:44.766Z,4
2019-03-16T04:54:44.835Z,4
2019-03-16T04:55:44.788Z,4
2019-03-16T04:56:44.812Z,8
2019-03-16T04:57:44.891Z,4
2019-03-16T04:58:44.844Z,8
2019-03-16T04:59:44.852Z,12
2019-03-16T05:00:44.875Z,16
2019-03-16T05:01:44.640Z,24
2019-03-16T05:02:44.902Z,32
2019-03-16T05:03:44.918Z,32
2019-03-16T05:04:49.993Z,36
2019-03-16T05:05:44.696Z,48
2019-03-16T05:06:59.619Z,56
2019-03-16T05:07:45.075Z,60
2019-03-16T05:08:44.998Z,72
2019-03-16T05:09:45.007Z,84
2019-03-16T05:10:45.018Z,96
2019-03-16T05:11:45.035Z,124
2019-03-16T05:12:45.048Z,156
2019-03-16T05:13:45.195Z,200
2019-03-16T05:14:45.098Z,248
2019-03-16T05:15:45.105Z,304
2019-03-16T05:17:45.151Z,408
2019-03-16T05:18:59.808Z,460
2019-03-16T05:19:59.816Z,488
2019-03-16T05:20:45.170Z,492
2019-03-16T05:22:59.862Z,500
2019-03-16T05:24:45.236Z,548
2019-03-16T05:25:45.249Z,588
2019-03-16T05:26:45.314Z,632
2019-03-16T05:27:59.942Z,700
2019-03-16T05:28:45.336Z,740
2019-03-16T05:29:45.310Z,804
2019-03-16T05:30:45.332Z,876
2019-03-16T05:31:45.337Z,960
2019-03-16T05:32:45.354Z,1060
2019-03-16T05:35:00.058Z,1368
2019-03-16T05:35:45.404Z,1472
2019-03-16T05:36:45.480Z,1604
2019-03-16T05:39:00.104Z,1920
2019-03-16T05:39:45.463Z,2040
2019-03-16T05:40:45.484Z,2200
2019-03-16T05:41:45.486Z,2332
2019-03-16T05:42:45.514Z,2440
2019-03-16T05:43:45.520Z,2520
2019-03-16T05:44:45.536Z,2596
2019-03-16T05:45:45.551Z,2692
2019-03-16T05:46:45.566Z,2856
2019-03-16T05:47:45.581Z,3000
2019-03-16T05:48:45.594Z,3016
2019-03-16T05:49:45.662Z,2936
2019-03-16T05:50:45.645Z,2836
2019-03-16T05:51:45.744Z,2852
2019-03-16T05:52:45.444Z,2944
2019-03-16T05:53:45.723Z,2860
2019-03-16T05:55:00.375Z,2712
2019-03-16T05:56:00.374Z,2764
2019-03-16T05:56:45.728Z,2924
2019-03-16T05:57:45.740Z,3260
2019-03-16T05:58:45.749Z,3716
2019-03-16T05:59:45.771Z,4240
2019-03-16T06:00:45.884Z,4820
2019-03-16T06:01:45.796Z,5212
2019-03-16T06:02:45.812Z,5536
2019-03-16T06:04:00.492Z,6036
2019-03-16T06:04:45.906Z,7740
2019-03-16T06:05:45.863Z,6524
2019-03-16T06:06:45.909Z,10544
2019-03-16T06:08:45.914Z,18304
2019-03-16T06:10:00.590Z,16704
2019-03-16T06:10:46.048Z,15744
2019-03-16T06:11:45.962Z,15360
2019-03-16T06:12:48.930Z,16864
2019-03-16T06:13:45.997Z,18624
2019-03-16T06:14:46.008Z,19360
2019-03-16T06:15:46.029Z,19072
2019-03-16T06:16:46.049Z,19424
2019-03-16T06:17:46.060Z,21312
2019-03-16T06:19:00.738Z,24512
2019-03-16T06:19:46.145Z,26816
2019-03-16T06:20:46.123Z,26720
2019-03-16T06:21:46.128Z,25504
2019-03-16T06:22:46.152Z,22336
2019-03-16T06:23:46.174Z,22080
2019-03-16T06:24:46.191Z,21984
2019-03-16T06:25:46.205Z,21952
2019-03-16T06:27:00.895Z,20064
2019-03-16T06:27:46.246Z,21472
2019-03-16T06:28:46.265Z,22240
2019-03-16T06:29:46.328Z,21472
2019-03-16T06:30:46.296Z,21920
2019-03-16T06:31:46.317Z,22080
2019-03-16T06:32:46.347Z,23808
2019-03-16T06:33:46.362Z,24672
2019-03-16T06:34:46.376Z,20128
2019-03-16T06:35:46.464Z,21280
2019-03-16T06:36:46.513Z,23808
2019-03-16T06:38:46.458Z,29888
2019-03-16T06:39:46.474Z,17376
2019-03-16T06:40:46.547Z,26144
2019-03-16T06:42:01.178Z,8216
2019-03-16T06:42:46.536Z,6772
2019-03-16T06:43:46.554Z,5836
2019-03-16T06:44:46.646Z,4944
2019-03-16T06:45:46.608Z,4448
2019-03-16T06:46:46.662Z,4416
2019-03-16T06:48:46.651Z,4564
2019-03-16T06:49:46.678Z,4604
2019-03-16T06:50:46.685Z,4372
2019-03-16T06:52:01.369Z,3980
2019-03-16T06:52:46.776Z,3740
2019-03-16T06:53:46.745Z,3836
2019-03-16T06:54:46.763Z,3388
2019-03-16T06:56:01.542Z,3188
2019-03-16T06:56:46.798Z,3452
2019-03-16T06:58:01.484Z,3920
2019-03-16T06:58:46.877Z,3752
2019-03-16T06:59:46.856Z,3612
2019-03-16T07:00:46.920Z,3956
2019-03-16T07:02:01.557Z,5144
2019-03-16T07:02:46.905Z,6212
2019-03-16T07:03:46.928Z,7616
2019-03-16T07:04:47.043Z,10040
2019-03-16T07:05:46.965Z,29504
2019-03-16T07:06:47.027Z,28800
2019-03-16T07:07:47.001Z,8936
2019-03-16T07:08:47.116Z,8416
2019-03-16T07:09:47.032Z,7888
2019-03-16T07:11:47.073Z,9792
2019-03-16T07:12:47.187Z,10540
2019-03-16T07:14:01.772Z,12300
2019-03-16T07:14:47.121Z,17152
2019-03-16T07:15:47.140Z,33536
2019-03-16T07:16:47.209Z,24480
2019-03-16T07:17:47.175Z,31936
2019-03-16T07:19:01.941Z,27936
2019-03-16T07:19:47.223Z,26752
2019-03-16T07:21:01.995Z,21440
2019-03-16T07:22:01.962Z,8960
2019-03-16T07:22:47.265Z,7908
2019-03-16T07:23:47.292Z,7532
2019-03-16T07:24:47.312Z,7552
2019-03-16T07:26:14.006Z,7400
2019-03-16T07:27:02.011Z,7524
2019-03-16T07:27:47.366Z,7580
2019-03-16T07:28:47.382Z,7860
2019-03-16T07:30:02.163Z,7904
2019-03-16T07:30:47.421Z,7848
2019-03-16T07:31:47.487Z,7836
2019-03-16T07:32:47.461Z,9292
2019-03-16T07:33:47.478Z,7152
2019-03-16T07:34:47.593Z,8288
2019-03-16T07:35:47.506Z,9048
2019-03-16T07:36:47.526Z,9160
2019-03-16T07:37:47.567Z,9088
2019-03-16T07:38:47.582Z,13056
2019-03-16T07:39:47.633Z,12664
2019-03-16T07:40:47.604Z,23296
2019-03-16T07:42:03.194Z,17024
2019-03-16T07:43:47.661Z,12276
2019-03-16T07:45:12.958Z,9332
2019-03-16T07:45:47.696Z,9144
2019-03-16T07:46:47.712Z,8940
2019-03-16T07:48:47.849Z,9328
2019-03-16T07:49:47.771Z,9772
2019-03-16T07:50:47.784Z,8956
2019-03-16T07:51:47.805Z,8300
2019-03-16T07:52:47.832Z,8444
2019-03-16T07:53:47.893Z,7932
2019-03-16T07:54:47.871Z,7468
2019-03-16T07:55:49.490Z,7052
2019-03-16T07:56:47.897Z,6376
2019-03-16T07:57:48.269Z,6996
2019-03-16T07:58:47.932Z,6628
2019-03-16T07:59:47.953Z,5360
2019-03-16T08:00:48.003Z,5344
2019-03-16T08:02:48.061Z,11832
2019-03-16T08:03:48.023Z,7316
2019-03-16T08:05:19.705Z,7328
2019-03-16T08:05:48.060Z,7680
2019-03-16T08:06:48.082Z,7236
2019-03-16T08:07:48.108Z,7672
2019-03-16T08:08:51.054Z,6672
2019-03-16T08:09:48.135Z,7808
2019-03-16T08:11:02.813Z,7996
2019-03-16T08:11:47.919Z,8216
2019-03-16T08:13:02.850Z,9804
2019-03-16T08:13:48.205Z,11692
2019-03-16T08:15:48.245Z,7436
2019-03-16T08:17:02.932Z,13404
2019-03-16T08:17:48.277Z,9540
2019-03-16T08:18:48.299Z,10144
2019-03-16T08:20:03.000Z,9248
2019-03-16T08:20:48.391Z,8700
2019-03-16T08:22:03.021Z,9464
2019-03-16T08:22:48.412Z,9356
2019-03-16T08:23:48.389Z,9380
2019-03-16T08:24:48.403Z,8932
2019-03-16T08:25:48.511Z,8536
2019-03-16T08:28:01.195Z,7544
2019-03-16T08:29:48.499Z,6904
2019-03-16T08:30:48.560Z,6120
2019-03-16T08:31:48.532Z,5752
2019-03-16T08:33:03.214Z,6732
2019-03-16T08:33:48.587Z,6748
2019-03-16T08:34:48.583Z,7468
2019-03-16T08:36:03.274Z,8104
2019-03-16T08:36:48.676Z,7564
2019-03-16T08:37:48.646Z,6952
2019-03-16T08:38:48.658Z,6476
2019-03-16T08:39:48.677Z,6688
2019-03-16T08:40:48.694Z,7324
2019-03-16T08:41:48.713Z,7424
2019-03-16T08:42:51.314Z,7428
2019-03-16T08:43:48.749Z,7564
2019-03-16T08:44:48.778Z,8484
2019-03-16T08:46:03.449Z,8876
2019-03-16T08:46:48.806Z,9092
2019-03-16T08:47:48.925Z,8924
2019-03-16T08:49:03.514Z,7636
2019-03-16T08:49:48.947Z,8288
2019-03-16T08:50:48.991Z,8760
2019-03-16T08:51:48.944Z,9760
2019-03-16T08:53:48.937Z,11976
2019-03-16T08:54:48.953Z,9448
2019-03-16T08:55:48.968Z,9580
2019-03-16T08:56:48.988Z,12044
2019-03-16T08:59:03.689Z,11256
2019-03-16T08:59:49.041Z,10448
2019-03-16T09:00:49.074Z,12764
2019-03-16T09:01:49.079Z,11876
2019-03-16T09:02:49.112Z,10192
2019-03-16T09:03:51.128Z,11108
2019-03-16T09:05:03.799Z,11624
2019-03-16T09:05:49.156Z,12268
2019-03-16T09:06:49.170Z,11972
2019-03-16T09:07:49.254Z,8960
2019-03-16T09:08:49.207Z,9200
2019-03-16T09:09:49.227Z,10968
2019-03-16T09:11:49.313Z,9532
2019-03-16T09:13:49.301Z,10760
2019-03-16T09:14:49.326Z,13144
2019-03-16T09:15:49.338Z,11480
2019-03-16T09:17:49.379Z,11108
2019-03-16T09:18:49.519Z,9816
2019-03-16T09:20:04.127Z,11384
2019-03-16T09:20:49.448Z,10128
2019-03-16T09:21:49.471Z,9748
2019-03-16T09:24:04.165Z,10048
2019-03-16T09:24:49.521Z,9728
2019-03-16T09:26:04.197Z,10456
2019-03-16T09:27:04.216Z,11048
2019-03-16T09:28:04.233Z,11644
2019-03-16T09:29:10.261Z,11040
2019-03-16T09:29:49.605Z,11384
2019-03-16T09:32:04.309Z,11768
2019-03-16T09:33:04.391Z,11148
2019-03-16T09:33:49.684Z,10852
2019-03-16T09:34:49.700Z,10800
2019-03-16T09:35:49.725Z,11140
2019-03-16T09:36:49.746Z,11340
2019-03-16T09:37:49.767Z,11032
2019-03-16T09:38:49.894Z,11688
2019-03-16T09:40:04.473Z,12212
2019-03-16T09:40:49.829Z,13128
2019-03-16T09:41:49.850Z,12296
2019-03-16T09:42:49.862Z,13280
2019-03-16T09:43:49.877Z,13316
2019-03-16T09:45:04.559Z,12436
2019-03-16T09:45:49.918Z,13988
2019-03-16T09:46:49.951Z,13500
2019-03-16T09:47:49.961Z,13680
2019-03-16T09:49:04.637Z,12316
2019-03-16T09:49:50.145Z,11592
2019-03-16T09:51:04.685Z,9612
2019-03-16T09:52:04.703Z,9580
2019-03-16T09:53:50.072Z,10988
2019-03-16T09:54:50.093Z,10900
2019-03-16T09:55:50.215Z,11560
2019-03-16T09:57:03.088Z,11376
2019-03-16T09:58:50.204Z,11848
2019-03-16T09:59:50.194Z,12188
2019-03-16T10:00:50.207Z,12224
2019-03-16T10:01:50.285Z,11792
2019-03-16T10:03:50.278Z,10084
2019-03-16T10:04:50.293Z,9980
2019-03-16T10:06:50.326Z,10836
2019-03-16T10:08:05.011Z,11520
2019-03-16T10:08:50.380Z,14444
2019-03-16T10:09:50.388Z,15220
2019-03-16T10:10:50.411Z,14448
2019-03-16T10:11:50.433Z,13120
2019-03-16T10:12:50.490Z,15064
2019-03-16T10:13:50.471Z,15064
2019-03-16T10:14:50.526Z,12148
2019-03-16T10:15:50.605Z,14424
2019-03-16T10:16:50.526Z,15380
2019-03-16T10:17:50.559Z,12128
2019-03-16T10:18:50.317Z,11152
2019-03-16T10:19:50.604Z,11648
2019-03-16T10:21:50.677Z,12040
2019-03-16T10:22:50.652Z,11224
2019-03-16T10:24:05.333Z,11312
2019-03-16T10:24:50.693Z,11196
2019-03-16T10:25:50.703Z,10312
2019-03-16T10:26:50.723Z,10520
2019-03-16T10:27:50.744Z,10864
2019-03-16T10:28:51.259Z,11256
2019-03-16T10:29:50.783Z,11804
2019-03-16T10:30:50.808Z,11808
2019-03-16T10:31:50.823Z,11360
2019-03-16T10:33:50.986Z,11724
2019-03-16T10:34:50.885Z,12096
2019-03-16T10:36:05.571Z,11612
2019-03-16T10:37:05.594Z,10976
2019-03-16T10:38:05.609Z,10252
2019-03-16T10:38:50.965Z,9920
2019-03-16T10:40:51.014Z,9764
2019-03-16T10:41:51.031Z,9664
2019-03-16T10:42:51.045Z,10052
2019-03-16T10:43:51.071Z,10176
2019-03-16T10:44:51.082Z,9984
2019-03-16T10:45:51.113Z,9744
2019-03-16T10:46:51.125Z,9152
2019-03-16T10:47:51.146Z,8464
2019-03-16T10:48:51.170Z,8156
2019-03-16T10:49:51.206Z,8032
2019-03-16T10:50:51.215Z,8352
2019-03-16T10:51:51.278Z,8388
2019-03-16T10:52:51.243Z,8904
2019-03-16T10:53:51.262Z,8132
2019-03-16T10:55:05.953Z,7892
2019-03-16T10:55:51.305Z,8168
2019-03-16T10:56:51.326Z,8788
2019-03-16T10:57:51.357Z,8688
2019-03-16T10:59:18.372Z,8732
2019-03-16T11:00:06.049Z,8196
2019-03-16T11:00:51.402Z,8224
2019-03-16T11:01:51.423Z,8760
2019-03-16T11:02:51.442Z,9580
2019-03-16T11:03:51.544Z,9616
2019-03-16T11:04:51.480Z,9076
2019-03-16T11:06:06.161Z,8192
2019-03-16T11:06:51.523Z,8172
2019-03-16T11:09:51.588Z,8136
2019-03-16T11:10:51.609Z,8356
2019-03-16T11:11:51.618Z,7808
2019-03-16T11:12:51.158Z,7180
2019-03-16T11:13:51.663Z,7396
2019-03-16T11:14:51.677Z,7580
2019-03-16T11:15:51.703Z,7376
2019-03-16T11:16:51.737Z,7768
2019-03-16T11:17:51.788Z,8356
2019-03-16T11:18:51.756Z,8108
2019-03-16T11:19:51.776Z,7716
2019-03-16T11:20:51.790Z,7172
2019-03-16T11:21:53.209Z,6912
2019-03-16T11:22:51.831Z,6796
2019-03-16T11:23:51.677Z,6664
2019-03-16T11:24:51.868Z,6284
2019-03-16T11:25:51.941Z,5764
2019-03-16T11:27:06.574Z,5624
2019-03-16T11:28:52.006Z,5064
2019-03-16T11:29:51.969Z,4860
2019-03-16T11:30:52.034Z,4640
2019-03-16T11:31:52.021Z,4824
2019-03-16T11:32:51.783Z,4708
2019-03-16T11:34:06.710Z,4332
2019-03-16T11:34:52.065Z,4476
2019-03-16T11:35:52.082Z,4780
2019-03-16T11:36:52.156Z,4668
2019-03-16T11:37:52.172Z,4144
2019-03-16T11:39:52.158Z,3972
2019-03-16T11:40:52.176Z,4328
2019-03-16T11:41:52.295Z,4580
2019-03-16T11:43:06.880Z,4800
2019-03-16T11:43:52.236Z,4788
2019-03-16T11:44:52.304Z,4728
2019-03-16T11:45:52.318Z,4704
2019-03-16T11:46:52.302Z,4628
2019-03-16T11:47:52.308Z,4576
2019-03-16T11:49:52.343Z,4464
2019-03-16T11:50:53.695Z,4396
2019-03-16T11:51:52.139Z,4356
2019-03-16T11:53:52.440Z,4528
2019-03-16T11:54:52.445Z,4620
2019-03-16T11:56:19.912Z,4664
2019-03-16T11:56:52.482Z,4684
2019-03-16T11:57:52.499Z,4696
2019-03-16T11:59:07.176Z,4704
2019-03-16T12:00:52.558Z,4752
2019-03-16T12:02:04.605Z,4792
2019-03-16T12:02:55.216Z,4904
2019-03-16T12:03:52.607Z,5048
2019-03-16T12:04:52.626Z,5164
2019-03-16T12:06:07.311Z,5200
2019-03-16T12:06:52.661Z,5184
2019-03-16T12:07:52.683Z,5200
2019-03-16T12:08:52.713Z,5296
2019-03-16T12:10:52.733Z,5392
2019-03-16T12:11:52.776Z,5416
2019-03-16T12:12:52.784Z,5456
2019-03-16T12:13:52.799Z,5488
2019-03-16T12:15:07.234Z,5488
2019-03-16T12:15:52.827Z,5500
2019-03-16T12:16:52.863Z,5620
2019-03-16T12:17:52.866Z,5656
2019-03-16T12:18:52.898Z,5768
2019-03-16T12:19:52.910Z,5900
2019-03-16T12:20:52.920Z,5892
2019-03-16T12:22:07.655Z,5812
2019-03-16T12:22:53.018Z,5764
2019-03-16T12:23:52.990Z,5648
2019-03-16T12:24:53.194Z,5528
2019-03-16T12:26:07.672Z,5492
2019-03-16T12:27:53.068Z,5560
2019-03-16T12:28:53.066Z,5624
2019-03-16T12:30:07.859Z,5672
2019-03-16T12:30:53.103Z,5656
2019-03-16T12:31:53.123Z,5564
2019-03-16T12:32:53.221Z,5416
2019-03-16T12:33:53.158Z,5360
2019-03-16T12:34:53.181Z,5328
2019-03-16T12:35:53.200Z,5284
2019-03-16T12:36:53.217Z,5260
2019-03-16T12:37:53.243Z,5284
2019-03-16T12:38:53.301Z,5260
2019-03-16T12:39:53.030Z,5176
2019-03-16T12:40:53.341Z,5084
2019-03-16T12:41:53.310Z,5028
2019-03-16T12:43:53.359Z,5000
2019-03-16T12:45:08.037Z,4952
2019-03-16T12:45:53.380Z,4916
2019-03-16T12:46:53.397Z,4896
2019-03-16T12:47:53.429Z,4784
2019-03-16T12:48:53.535Z,4564
2019-03-16T12:49:53.305Z,4348
2019-03-16T12:51:08.192Z,4276
2019-03-16T12:52:08.250Z,4288
2019-03-16T12:52:53.507Z,4352
2019-03-16T12:53:53.537Z,4432
2019-03-16T12:54:53.290Z,4328
2019-03-16T12:55:53.626Z,3952
2019-03-16T12:56:53.578Z,3788
2019-03-16T12:57:55.218Z,3876
2019-03-16T12:58:53.721Z,4100
2019-03-16T12:59:54.275Z,4252
2019-03-16T13:00:53.656Z,4168
2019-03-16T13:02:08.336Z,3320
2019-03-16T13:02:53.687Z,2672
2019-03-16T13:04:09.945Z,1980
2019-03-16T13:04:53.473Z,1900
2019-03-16T13:05:53.747Z,2164
2019-03-16T13:06:53.768Z,2424
2019-03-16T13:07:53.776Z,2520
2019-03-16T13:08:53.855Z,2264
2019-03-16T13:09:53.614Z,2228
2019-03-16T13:10:53.830Z,2572
2019-03-16T13:11:53.844Z,2644
2019-03-16T13:12:53.870Z,2816
2019-03-16T13:15:08.563Z,3296
2019-03-16T13:16:08.633Z,3436
2019-03-16T13:16:53.990Z,3672
2019-03-16T13:18:23.287Z,4480
2019-03-16T13:18:53.970Z,4700
2019-03-16T13:19:54.037Z,4756
2019-03-16T13:20:54.090Z,4776
2019-03-16T13:21:54.024Z,4756
2019-03-16T13:22:54.169Z,4796
2019-03-16T13:23:54.130Z,4812
2019-03-16T13:24:54.074Z,4840
2019-03-16T13:25:54.101Z,4876
2019-03-16T13:26:54.127Z,4832
2019-03-16T13:28:08.793Z,4752
2019-03-16T13:28:54.149Z,4672
2019-03-16T13:30:05.655Z,4612
2019-03-16T13:32:54.220Z,4596
2019-03-16T13:34:08.984Z,4524
2019-03-16T13:34:54.260Z,4584
2019-03-16T13:35:54.276Z,4244
2019-03-16T13:36:54.287Z,4800
2019-03-16T13:38:08.980Z,5088
2019-03-16T13:38:54.325Z,5076
2019-03-16T13:39:54.344Z,4900
2019-03-16T13:41:09.087Z,4272
2019-03-16T13:41:54.379Z,4152
2019-03-16T13:42:54.510Z,3828
2019-03-16T13:43:54.422Z,3912
2019-03-16T13:44:54.536Z,3668
2019-03-16T13:45:54.554Z,3380
2019-03-16T13:47:56.799Z,4156
2019-03-16T13:48:54.603Z,4320
2019-03-16T13:50:09.618Z,4148
2019-03-16T13:50:54.548Z,4256
2019-03-16T13:51:55.350Z,4224
2019-03-16T13:52:54.624Z,4132
2019-03-16T13:53:54.646Z,4084
2019-03-16T13:54:55.260Z,3580
2019-03-16T13:55:54.631Z,3116
2019-03-16T13:56:54.656Z,3308
2019-03-16T13:57:55.578Z,3484
2019-03-16T13:58:54.691Z,3548
2019-03-16T13:59:54.704Z,3764
2019-03-16T14:00:55.119Z,4080
2019-03-16T14:01:54.742Z,4324
2019-03-16T14:02:54.768Z,4360
2019-03-16T14:03:55.095Z,4320
2019-03-16T14:05:54.846Z,3860
2019-03-16T14:08:09.786Z,3096
2019-03-16T14:08:54.857Z,2748
2019-03-16T14:09:54.886Z,2736
2019-03-16T14:10:55.653Z,2748
2019-03-16T14:11:54.915Z,2596
2019-03-16T14:12:54.945Z,2528
2019-03-16T14:13:55.497Z,3068
2019-03-16T14:14:55.005Z,3272
2019-03-16T14:15:54.981Z,3216
2019-03-16T14:16:55.006Z,3412
2019-03-16T14:17:58.036Z,3480
2019-03-16T14:18:55.041Z,3364
2019-03-16T14:19:55.047Z,3368
2019-03-16T14:20:55.155Z,3436
2019-03-16T14:22:10.207Z,3496
2019-03-16T14:22:55.111Z,3740
2019-03-16T14:23:55.113Z,3892
2019-03-16T14:24:55.143Z,3896
2019-03-16T14:27:55.193Z,3804
2019-03-16T14:28:55.278Z,3808
2019-03-16T14:29:55.412Z,3756
2019-03-16T14:30:55.247Z,3624
2019-03-16T14:31:55.262Z,3628
2019-03-16T14:32:55.356Z,3664
2019-03-16T14:33:55.293Z,3660
2019-03-16T14:34:55.825Z,3552
2019-03-16T14:35:55.383Z,3352
2019-03-16T14:37:10.018Z,3184
2019-03-16T14:37:55.712Z,3016
2019-03-16T14:40:12.431Z,1720
2019-03-16T14:41:10.074Z,1704
2019-03-16T14:42:56.352Z,1948
2019-03-16T14:43:55.463Z,1952
2019-03-16T14:44:55.483Z,2028
2019-03-16T14:45:56.854Z,2020